sensor_id;sensor_type;location;lat;lon;timestamp;temperature;humidity
52565;DHT22;38460;53.106;7.004;2023-12-22T00:01:30;4.70;99.90
52565;DHT22;38460;53.106;7.004;2023-12-22T00:03:56;4.70;99.90
52565;DHT22;38460;53.106;7.004;2023-12-22T00:06:22;4.70;99.90
52565;DHT22;38460;53.106;7.004;2023-12-22T00:08:47;4.70;99.90
52565;DHT22;38460;53.106;7.004;2023-12-22T00:11:13;4.60;99.90
52565;DHT22;38460;53.106;7.004;2023-12-22T00:13:39;4.60;99.90
52565;DHT22;38460;53.106;7.004;2023-12-22T00:16:05;4.60;99.90
52565;DHT22;38460;53.106;7.004;2023-12-22T00:18:31;4.60;99.90
52565;DHT22;38460;53.106;7.004;2023-12-22T00:20:57;4.70;99.90
52565;DHT22;38460;53.106;7.004;2023-12-22T00:23:22;4.70;99.90
52565;DHT22;38460;53.106;7.004;2023-12-22T00:25:48;4.80;99.90
52565;DHT22;38460;53.106;7.004;2023-12-22T00:28:14;4.80;99.90
52565;DHT22;38460;53.106;7.004;2023-12-22T00:30:40;4.80;99.90
52565;DHT22;38460;53.106;7.004;2023-12-22T00:33:05;5.00;99.90
52565;DHT22;38460;53.106;7.004;2023-12-22T00:35:31;4.90;99.90
52565;DHT22;38460;53.106;7.004;2023-12-22T00:37:57;4.80;99.90
52565;DHT22;38460;53.106;7.004;2023-12-22T00:40:22;4.70;99.90
52565;DHT22;38460;53.106;7.004;2023-12-22T00:42:48;4.80;99.90
52565;DHT22;38460;53.106;7.004;2023-12-22T00:45:14;4.60;99.90
52565;DHT22;38460;53.106;7.004;2023-12-22T00:47:40;4.60;99.90
52565;DHT22;38460;53.106;7.004;2023-12-22T00:50:06;4.50;99.90
52565;DHT22;38460;53.106;7.004;2023-12-22T00:52:34;4.50;99.90
52565;DHT22;38460;53.106;7.004;2023-12-22T00:55:00;4.50;99.90
52565;DHT22;38460;53.106;7.004;2023-12-22T00:57:26;4.50;99.90
52565;DHT22;38460;53.106;7.004;2023-12-22T00:59:51;4.60;99.90
52565;DHT22;38460;53.106;7.004;2023-12-22T01:02:18;4.50;99.90
52565;DHT22;38460;53.106;7.004;2023-12-22T01:04:44;4.60;99.90
52565;DHT22;38460;53.106;7.004;2023-12-22T01:07:10;4.60;99.90
52565;DHT22;38460;53.106;7.004;2023-12-22T01:09:37;4.60;99.90
52565;DHT22;38460;53.106;7.004;2023-12-22T01:12:06;4.60;99.90
52565;DHT22;38460;53.106;7.004;2023-12-22T01:14:33;4.60;99.90
52565;DHT22;38460;53.106;7.004;2023-12-22T01:16:59;4.60;99.90
52565;DHT22;38460;53.106;7.004;2023-12-22T01:19:26;4.60;99.90
52565;DHT22;38460;53.106;7.004;2023-12-22T01:21:51;4.60;99.90
52565;DHT22;38460;53.106;7.004;2023-12-22T01:24:17;4.60;99.90
52565;DHT22;38460;53.106;7.004;2023-12-22T01:26:43;4.60;99.90
52565;DHT22;38460;53.106;7.004;2023-12-22T01:29:09;4.70;99.90
52565;DHT22;38460;53.106;7.004;2023-12-22T01:31:34;4.70;99.90
52565;DHT22;38460;53.106;7.004;2023-12-22T01:34:00;4.70;99.90
52565;DHT22;38460;53.106;7.004;2023-12-22T01:36:26;4.70;99.90
52565;DHT22;38460;53.106;7.004;2023-12-22T01:38:52;4.80;99.90
52565;DHT22;38460;53.106;7.004;2023-12-22T01:41:17;4.90;99.90
52565;DHT22;38460;53.106;7.004;2023-12-22T01:43:43;4.90;99.90
52565;DHT22;38460;53.106;7.004;2023-12-22T01:46:09;4.80;99.90
52565;DHT22;38460;53.106;7.004;2023-12-22T01:48:36;4.80;99.90
52565;DHT22;38460;53.106;7.004;2023-12-22T01:51:02;4.80;99.90
52565;DHT22;38460;53.106;7.004;2023-12-22T01:53:30;4.80;99.90
52565;DHT22;38460;53.106;7.004;2023-12-22T01:55:57;5.00;99.90
52565;DHT22;38460;53.106;7.004;2023-12-22T01:58:26;4.80;99.90
52565;DHT22;38460;53.106;7.004;2023-12-22T02:00:53;4.80;99.90
52565;DHT22;38460;53.106;7.004;2023-12-22T02:03:20;4.70;99.90
52565;DHT22;38460;53.106;7.004;2023-12-22T02:05:46;4.80;99.90
52565;DHT22;38460;53.106;7.004;2023-12-22T02:08:12;4.80;99.90
52565;DHT22;38460;53.106;7.004;2023-12-22T02:10:38;4.80;99.90
52565;DHT22;38460;53.106;7.004;2023-12-22T02:13:05;4.90;99.90
52565;DHT22;38460;53.106;7.004;2023-12-22T02:15:32;4.90;99.90
52565;DHT22;38460;53.106;7.004;2023-12-22T02:20:26;4.90;99.90
52565;DHT22;38460;53.106;7.004;2023-12-22T02:22:53;4.90;99.90
52565;DHT22;38460;53.106;7.004;2023-12-22T02:25:19;5.00;99.90
52565;DHT22;38460;53.106;7.004;2023-12-22T02:27:48;4.90;99.90
52565;DHT22;38460;53.106;7.004;2023-12-22T02:30:41;4.90;99.90
52565;DHT22;38460;53.106;7.004;2023-12-22T02:33:05;5.00;99.90
52565;DHT22;38460;53.106;7.004;2023-12-22T02:35:34;5.00;99.90
52565;DHT22;38460;53.106;7.004;2023-12-22T02:38:02;4.90;99.90
52565;DHT22;38460;53.106;7.004;2023-12-22T02:40:29;4.90;99.90
52565;DHT22;38460;53.106;7.004;2023-12-22T02:42:56;4.90;99.90
52565;DHT22;38460;53.106;7.004;2023-12-22T02:45:22;4.90;99.90
52565;DHT22;38460;53.106;7.004;2023-12-22T02:47:48;4.90;99.90
52565;DHT22;38460;53.106;7.004;2023-12-22T02:50:15;4.90;99.90
52565;DHT22;38460;53.106;7.004;2023-12-22T02:52:41;4.90;99.90
52565;DHT22;38460;53.106;7.004;2023-12-22T02:55:08;4.90;99.90
52565;DHT22;38460;53.106;7.004;2023-12-22T02:57:33;4.90;99.90
52565;DHT22;38460;53.106;7.004;2023-12-22T02:59:59;4.80;99.90
52565;DHT22;38460;53.106;7.004;2023-12-22T03:02:25;4.80;99.90
52565;DHT22;38460;53.106;7.004;2023-12-22T03:04:51;4.90;99.90
52565;DHT22;38460;53.106;7.004;2023-12-22T03:07:16;5.00;99.90
52565;DHT22;38460;53.106;7.004;2023-12-22T03:09:43;4.90;99.90
52565;DHT22;38460;53.106;7.004;2023-12-22T03:12:09;4.90;99.90
52565;DHT22;38460;53.106;7.004;2023-12-22T03:14:35;4.90;99.90
52565;DHT22;38460;53.106;7.004;2023-12-22T03:17:02;4.90;99.90
52565;DHT22;38460;53.106;7.004;2023-12-22T03:19:28;4.90;99.90
52565;DHT22;38460;53.106;7.004;2023-12-22T03:21:53;4.90;99.90
52565;DHT22;38460;53.106;7.004;2023-12-22T03:24:19;5.00;99.90
52565;DHT22;38460;53.106;7.004;2023-12-22T03:26:46;5.00;99.90
52565;DHT22;38460;53.106;7.004;2023-12-22T03:29:12;5.00;99.90
52565;DHT22;38460;53.106;7.004;2023-12-22T03:31:37;4.90;99.90
52565;DHT22;38460;53.106;7.004;2023-12-22T03:34:03;4.90;99.90
52565;DHT22;38460;53.106;7.004;2023-12-22T03:36:29;4.80;99.90
52565;DHT22;38460;53.106;7.004;2023-12-22T03:38:54;4.80;99.90
52565;DHT22;38460;53.106;7.004;2023-12-22T03:41:20;4.80;99.90
52565;DHT22;38460;53.106;7.004;2023-12-22T03:43:46;4.80;99.90
52565;DHT22;38460;53.106;7.004;2023-12-22T03:46:11;4.70;99.90
52565;DHT22;38460;53.106;7.004;2023-12-22T03:48:37;4.70;99.90
52565;DHT22;38460;53.106;7.004;2023-12-22T03:51:03;4.70;99.90
52565;DHT22;38460;53.106;7.004;2023-12-22T03:53:29;4.60;99.90
52565;DHT22;38460;53.106;7.004;2023-12-22T03:55:55;4.60;99.90
52565;DHT22;38460;53.106;7.004;2023-12-22T03:58:21;4.60;99.90
52565;DHT22;38460;53.106;7.004;2023-12-22T04:00:46;4.60;99.90
52565;DHT22;38460;53.106;7.004;2023-12-22T04:03:13;4.60;99.90
52565;DHT22;38460;53.106;7.004;2023-12-22T04:05:39;4.60;99.90
52565;DHT22;38460;53.106;7.004;2023-12-22T04:08:05;4.60;99.90
52565;DHT22;38460;53.106;7.004;2023-12-22T04:10:31;4.60;99.90
52565;DHT22;38460;53.106;7.004;2023-12-22T04:12:57;4.60;99.90
52565;DHT22;38460;53.106;7.004;2023-12-22T04:15:23;4.70;99.90
52565;DHT22;38460;53.106;7.004;2023-12-22T04:17:48;4.70;99.90
52565;DHT22;38460;53.106;7.004;2023-12-22T04:20:15;4.90;99.90
52565;DHT22;38460;53.106;7.004;2023-12-22T04:22:41;5.10;99.90
52565;DHT22;38460;53.106;7.004;2023-12-22T04:25:08;5.20;99.90
52565;DHT22;38460;53.106;7.004;2023-12-22T04:27:34;5.20;99.90
52565;DHT22;38460;53.106;7.004;2023-12-22T04:30:00;5.20;99.90
52565;DHT22;38460;53.106;7.004;2023-12-22T04:32:26;5.20;99.90
52565;DHT22;38460;53.106;7.004;2023-12-22T04:34:52;5.20;99.90
52565;DHT22;38460;53.106;7.004;2023-12-22T04:37:18;5.20;99.90
52565;DHT22;38460;53.106;7.004;2023-12-22T04:39:43;5.10;99.90
52565;DHT22;38460;53.106;7.004;2023-12-22T04:42:09;5.10;99.90
52565;DHT22;38460;53.106;7.004;2023-12-22T04:44:35;5.00;99.90
52565;DHT22;38460;53.106;7.004;2023-12-22T04:47:01;5.00;99.90
52565;DHT22;38460;53.106;7.004;2023-12-22T04:49:26;5.00;99.90
52565;DHT22;38460;53.106;7.004;2023-12-22T04:51:52;5.00;99.90
52565;DHT22;38460;53.106;7.004;2023-12-22T04:54:18;5.00;99.90
52565;DHT22;38460;53.106;7.004;2023-12-22T04:56:44;5.00;99.90
52565;DHT22;38460;53.106;7.004;2023-12-22T04:59:09;5.00;99.90
52565;DHT22;38460;53.106;7.004;2023-12-22T05:01:35;5.00;99.90
52565;DHT22;38460;53.106;7.004;2023-12-22T05:04:01;5.00;99.90
52565;DHT22;38460;53.106;7.004;2023-12-22T05:06:27;5.10;99.90
52565;DHT22;38460;53.106;7.004;2023-12-22T05:08:55;5.20;99.90
52565;DHT22;38460;53.106;7.004;2023-12-22T05:11:22;5.30;99.90
52565;DHT22;38460;53.106;7.004;2023-12-22T05:13:47;5.30;99.90
52565;DHT22;38460;53.106;7.004;2023-12-22T05:16:13;5.40;99.90
52565;DHT22;38460;53.106;7.004;2023-12-22T05:18:39;5.40;99.90
52565;DHT22;38460;53.106;7.004;2023-12-22T05:21:05;5.50;99.90
52565;DHT22;38460;53.106;7.004;2023-12-22T05:23:31;5.60;99.90
52565;DHT22;38460;53.106;7.004;2023-12-22T05:25:56;5.70;99.90
52565;DHT22;38460;53.106;7.004;2023-12-22T05:28:22;5.70;99.90
52565;DHT22;38460;53.106;7.004;2023-12-22T05:30:48;5.60;99.90
52565;DHT22;38460;53.106;7.004;2023-12-22T05:33:14;5.60;99.90
52565;DHT22;38460;53.106;7.004;2023-12-22T05:35:39;5.60;99.90
52565;DHT22;38460;53.106;7.004;2023-12-22T05:38:05;5.60;99.90
52565;DHT22;38460;53.106;7.004;2023-12-22T05:40:31;5.60;99.90
52565;DHT22;38460;53.106;7.004;2023-12-22T05:42:57;5.60;99.90
52565;DHT22;38460;53.106;7.004;2023-12-22T05:45:23;5.70;99.90
52565;DHT22;38460;53.106;7.004;2023-12-22T05:47:50;5.70;99.90
52565;DHT22;38460;53.106;7.004;2023-12-22T05:50:16;5.80;99.90
52565;DHT22;38460;53.106;7.004;2023-12-22T05:52:42;5.80;99.90
52565;DHT22;38460;53.106;7.004;2023-12-22T05:55:10;5.80;99.90
52565;DHT22;38460;53.106;7.004;2023-12-22T05:57:36;5.80;99.90
52565;DHT22;38460;53.106;7.004;2023-12-22T06:00:06;5.80;99.90
52565;DHT22;38460;53.106;7.004;2023-12-22T06:02:33;5.80;99.90
52565;DHT22;38460;53.106;7.004;2023-12-22T06:04:59;5.90;99.90
52565;DHT22;38460;53.106;7.004;2023-12-22T06:07:25;5.80;99.90
52565;DHT22;38460;53.106;7.004;2023-12-22T06:09:51;5.80;99.90
52565;DHT22;38460;53.106;7.004;2023-12-22T06:12:17;5.80;99.90
52565;DHT22;38460;53.106;7.004;2023-12-22T06:14:42;5.80;99.90
52565;DHT22;38460;53.106;7.004;2023-12-22T06:17:08;5.90;99.90
52565;DHT22;38460;53.106;7.004;2023-12-22T06:19:35;5.80;99.90
52565;DHT22;38460;53.106;7.004;2023-12-22T06:22:01;5.90;99.90
52565;DHT22;38460;53.106;7.004;2023-12-22T06:24:27;5.90;99.90
52565;DHT22;38460;53.106;7.004;2023-12-22T06:26:53;5.90;99.90
52565;DHT22;38460;53.106;7.004;2023-12-22T06:29:19;5.90;99.90
52565;DHT22;38460;53.106;7.004;2023-12-22T06:31:44;5.90;99.90
52565;DHT22;38460;53.106;7.004;2023-12-22T06:34:10;5.90;99.90
52565;DHT22;38460;53.106;7.004;2023-12-22T06:36:36;5.90;99.90
52565;DHT22;38460;53.106;7.004;2023-12-22T06:39:02;5.90;99.90
52565;DHT22;38460;53.106;7.004;2023-12-22T06:41:29;5.70;99.90
52565;DHT22;38460;53.106;7.004;2023-12-22T06:43:58;5.90;99.90
52565;DHT22;38460;53.106;7.004;2023-12-22T06:46:27;5.90;99.90
52565;DHT22;38460;53.106;7.004;2023-12-22T06:48:55;5.90;99.90
52565;DHT22;38460;53.106;7.004;2023-12-22T06:53:47;5.90;99.90
52565;DHT22;38460;53.106;7.004;2023-12-22T06:56:20;5.90;99.90
52565;DHT22;38460;53.106;7.004;2023-12-22T06:58:48;5.80;99.90
52565;DHT22;38460;53.106;7.004;2023-12-22T07:01:18;5.80;99.90
52565;DHT22;38460;53.106;7.004;2023-12-22T07:03:46;5.70;99.90
52565;DHT22;38460;53.106;7.004;2023-12-22T07:06:17;5.60;99.90
52565;DHT22;38460;53.106;7.004;2023-12-22T07:08:43;5.60;99.90
52565;DHT22;38460;53.106;7.004;2023-12-22T07:11:10;5.50;99.90
52565;DHT22;38460;53.106;7.004;2023-12-22T07:13:36;5.40;99.90
52565;DHT22;38460;53.106;7.004;2023-12-22T07:16:03;5.30;99.90
52565;DHT22;38460;53.106;7.004;2023-12-22T07:18:29;5.20;99.90
52565;DHT22;38460;53.106;7.004;2023-12-22T07:20:58;5.20;99.90
52565;DHT22;38460;53.106;7.004;2023-12-22T07:23:24;5.20;99.90
52565;DHT22;38460;53.106;7.004;2023-12-22T07:25:50;5.20;99.90
52565;DHT22;38460;53.106;7.004;2023-12-22T07:28:15;5.20;99.90
52565;DHT22;38460;53.106;7.004;2023-12-22T07:30:41;5.20;99.90
52565;DHT22;38460;53.106;7.004;2023-12-22T07:33:07;5.20;99.90
52565;DHT22;38460;53.106;7.004;2023-12-22T07:35:33;5.20;99.90
52565;DHT22;38460;53.106;7.004;2023-12-22T07:38:00;5.20;99.90
52565;DHT22;38460;53.106;7.004;2023-12-22T07:40:25;4.90;99.90
52565;DHT22;38460;53.106;7.004;2023-12-22T07:42:51;4.80;99.90
52565;DHT22;38460;53.106;7.004;2023-12-22T07:45:17;4.70;99.90
52565;DHT22;38460;53.106;7.004;2023-12-22T07:47:43;4.60;99.90
52565;DHT22;38460;53.106;7.004;2023-12-22T07:50:08;4.50;99.90
52565;DHT22;38460;53.106;7.004;2023-12-22T07:52:35;4.50;99.90
52565;DHT22;38460;53.106;7.004;2023-12-22T07:55:08;4.50;99.90
52565;DHT22;38460;53.106;7.004;2023-12-22T07:57:37;4.50;99.90
52565;DHT22;38460;53.106;7.004;2023-12-22T08:00:04;4.50;99.90
52565;DHT22;38460;53.106;7.004;2023-12-22T08:02:31;4.50;99.90
52565;DHT22;38460;53.106;7.004;2023-12-22T08:04:57;4.50;99.90
52565;DHT22;38460;53.106;7.004;2023-12-22T08:07:23;4.50;99.90
52565;DHT22;38460;53.106;7.004;2023-12-22T08:09:48;4.60;99.90
52565;DHT22;38460;53.106;7.004;2023-12-22T08:12:14;4.60;99.90
52565;DHT22;38460;53.106;7.004;2023-12-22T08:14:40;4.60;99.90
52565;DHT22;38460;53.106;7.004;2023-12-22T08:17:06;4.60;99.90
52565;DHT22;38460;53.106;7.004;2023-12-22T08:19:32;4.60;99.90
52565;DHT22;38460;53.106;7.004;2023-12-22T08:21:57;4.60;99.90
52565;DHT22;38460;53.106;7.004;2023-12-22T08:24:23;4.60;99.90
52565;DHT22;38460;53.106;7.004;2023-12-22T08:26:50;4.60;99.90
52565;DHT22;38460;53.106;7.004;2023-12-22T08:29:15;4.80;99.90
52565;DHT22;38460;53.106;7.004;2023-12-22T08:31:41;4.70;99.90
52565;DHT22;38460;53.106;7.004;2023-12-22T08:34:07;4.70;99.90
52565;DHT22;38460;53.106;7.004;2023-12-22T08:36:33;4.70;99.90
52565;DHT22;38460;53.106;7.004;2023-12-22T08:38:59;4.70;99.90
52565;DHT22;38460;53.106;7.004;2023-12-22T08:41:24;4.70;99.90
52565;DHT22;38460;53.106;7.004;2023-12-22T08:43:50;4.80;99.90
52565;DHT22;38460;53.106;7.004;2023-12-22T08:46:16;4.90;99.90
52565;DHT22;38460;53.106;7.004;2023-12-22T08:48:42;4.90;99.90
52565;DHT22;38460;53.106;7.004;2023-12-22T08:51:08;4.90;99.90
52565;DHT22;38460;53.106;7.004;2023-12-22T08:53:35;4.90;99.90
52565;DHT22;38460;53.106;7.004;2023-12-22T08:56:05;4.90;99.90
52565;DHT22;38460;53.106;7.004;2023-12-22T08:58:32;5.00;99.90
52565;DHT22;38460;53.106;7.004;2023-12-22T09:00:58;5.00;99.90
52565;DHT22;38460;53.106;7.004;2023-12-22T09:03:24;5.00;99.90
52565;DHT22;38460;53.106;7.004;2023-12-22T09:05:49;5.00;99.90
52565;DHT22;38460;53.106;7.004;2023-12-22T09:08:15;5.00;99.90
52565;DHT22;38460;53.106;7.004;2023-12-22T09:10:41;5.10;99.90
52565;DHT22;38460;53.106;7.004;2023-12-22T09:13:07;5.10;99.90
52565;DHT22;38460;53.106;7.004;2023-12-22T09:15:33;5.10;99.90
52565;DHT22;38460;53.106;7.004;2023-12-22T09:17:58;5.20;99.90
52565;DHT22;38460;53.106;7.004;2023-12-22T09:20:24;5.20;99.90
52565;DHT22;38460;53.106;7.004;2023-12-22T09:22:50;5.30;99.90
52565;DHT22;38460;53.106;7.004;2023-12-22T09:25:16;5.40;99.90
52565;DHT22;38460;53.106;7.004;2023-12-22T09:27:41;4.50;99.90
52565;DHT22;38460;53.106;7.004;2023-12-22T09:30:07;5.50;99.90
52565;DHT22;38460;53.106;7.004;2023-12-22T09:32:33;5.60;99.90
52565;DHT22;38460;53.106;7.004;2023-12-22T09:35:00;5.60;99.90
52565;DHT22;38460;53.106;7.004;2023-12-22T09:37:26;5.70;99.90
52565;DHT22;38460;53.106;7.004;2023-12-22T09:39:52;5.70;99.90
52565;DHT22;38460;53.106;7.004;2023-12-22T09:42:20;5.70;99.90
52565;DHT22;38460;53.106;7.004;2023-12-22T09:44:48;5.80;99.90
52565;DHT22;38460;53.106;7.004;2023-12-22T09:47:16;5.80;99.90
52565;DHT22;38460;53.106;7.004;2023-12-22T09:49:43;5.80;99.90
52565;DHT22;38460;53.106;7.004;2023-12-22T09:52:10;5.80;99.90
52565;DHT22;38460;53.106;7.004;2023-12-22T09:54:37;5.90;99.90
52565;DHT22;38460;53.106;7.004;2023-12-22T09:57:03;5.90;99.90
52565;DHT22;38460;53.106;7.004;2023-12-22T09:59:30;5.90;99.90
52565;DHT22;38460;53.106;7.004;2023-12-22T10:01:57;6.00;99.90
52565;DHT22;38460;53.106;7.004;2023-12-22T10:04:25;6.00;99.90
52565;DHT22;38460;53.106;7.004;2023-12-22T10:06:51;6.00;99.90
52565;DHT22;38460;53.106;7.004;2023-12-22T10:09:19;6.10;99.90
52565;DHT22;38460;53.106;7.004;2023-12-22T10:11:47;6.10;99.90
52565;DHT22;38460;53.106;7.004;2023-12-22T10:14:15;6.10;99.90
52565;DHT22;38460;53.106;7.004;2023-12-22T10:16:48;6.10;99.90
52565;DHT22;38460;53.106;7.004;2023-12-22T10:19:15;6.10;99.90
52565;DHT22;38460;53.106;7.004;2023-12-22T10:21:41;6.20;99.90
52565;DHT22;38460;53.106;7.004;2023-12-22T10:24:07;6.20;99.90
52565;DHT22;38460;53.106;7.004;2023-12-22T10:26:33;6.20;99.90
52565;DHT22;38460;53.106;7.004;2023-12-22T10:28:59;6.20;99.90
52565;DHT22;38460;53.106;7.004;2023-12-22T10:31:24;6.30;99.90
52565;DHT22;38460;53.106;7.004;2023-12-22T10:33:51;6.30;99.90
52565;DHT22;38460;53.106;7.004;2023-12-22T10:36:17;6.30;99.90
52565;DHT22;38460;53.106;7.004;2023-12-22T10:38:42;6.30;99.90
52565;DHT22;38460;53.106;7.004;2023-12-22T10:41:08;6.40;99.90
52565;DHT22;38460;53.106;7.004;2023-12-22T10:43:41;6.30;99.90
52565;DHT22;38460;53.106;7.004;2023-12-22T10:46:07;6.40;99.90
52565;DHT22;38460;53.106;7.004;2023-12-22T10:48:33;6.40;99.90
52565;DHT22;38460;53.106;7.004;2023-12-22T10:50:59;6.40;99.90
52565;DHT22;38460;53.106;7.004;2023-12-22T10:53:25;6.40;99.90
52565;DHT22;38460;53.106;7.004;2023-12-22T10:55:51;6.40;99.90
52565;DHT22;38460;53.106;7.004;2023-12-22T10:58:17;6.40;99.90
52565;DHT22;38460;53.106;7.004;2023-12-22T11:00:45;6.40;99.90
52565;DHT22;38460;53.106;7.004;2023-12-22T11:03:17;6.50;99.90
52565;DHT22;38460;53.106;7.004;2023-12-22T11:05:46;6.40;99.90
52565;DHT22;38460;53.106;7.004;2023-12-22T11:08:12;6.50;99.90
52565;DHT22;38460;53.106;7.004;2023-12-22T11:10:42;6.50;99.90
52565;DHT22;38460;53.106;7.004;2023-12-22T11:13:12;6.50;99.90
52565;DHT22;38460;53.106;7.004;2023-12-22T11:15:40;6.50;99.90
52565;DHT22;38460;53.106;7.004;2023-12-22T11:18:08;6.50;99.90
52565;DHT22;38460;53.106;7.004;2023-12-22T11:20:35;6.50;99.90
52565;DHT22;38460;53.106;7.004;2023-12-22T11:23:02;6.50;99.90
52565;DHT22;38460;53.106;7.004;2023-12-22T11:25:28;6.60;99.90
52565;DHT22;38460;53.106;7.004;2023-12-22T11:27:55;6.60;99.90
52565;DHT22;38460;53.106;7.004;2023-12-22T11:30:22;6.60;99.90
52565;DHT22;38460;53.106;7.004;2023-12-22T11:32:49;6.60;99.90
52565;DHT22;38460;53.106;7.004;2023-12-22T11:35:16;6.60;99.90
52565;DHT22;38460;53.106;7.004;2023-12-22T11:37:43;6.60;99.90
52565;DHT22;38460;53.106;7.004;2023-12-22T11:40:09;6.70;99.90
52565;DHT22;38460;53.106;7.004;2023-12-22T11:42:42;6.60;99.90
52565;DHT22;38460;53.106;7.004;2023-12-22T11:45:12;6.70;99.90
52565;DHT22;38460;53.106;7.004;2023-12-22T11:47:46;6.70;99.90
52565;DHT22;38460;53.106;7.004;2023-12-22T11:50:12;6.70;99.90
52565;DHT22;38460;53.106;7.004;2023-12-22T11:52:38;6.70;99.90
52565;DHT22;38460;53.106;7.004;2023-12-22T11:55:04;6.70;99.90
52565;DHT22;38460;53.106;7.004;2023-12-22T11:57:38;6.80;99.90
52565;DHT22;38460;53.106;7.004;2023-12-22T12:02:54;6.80;99.90
52565;DHT22;38460;53.106;7.004;2023-12-22T12:05:20;6.80;99.90
52565;DHT22;38460;53.106;7.004;2023-12-22T12:07:47;6.80;99.90
52565;DHT22;38460;53.106;7.004;2023-12-22T12:13:09;6.80;99.90
52565;DHT22;38460;53.106;7.004;2023-12-22T12:15:38;6.90;99.90
52565;DHT22;38460;53.106;7.004;2023-12-22T12:18:05;6.90;99.90
52565;DHT22;38460;53.106;7.004;2023-12-22T12:20:32;6.90;99.90
52565;DHT22;38460;53.106;7.004;2023-12-22T12:22:58;6.90;99.90
52565;DHT22;38460;53.106;7.004;2023-12-22T12:25:28;6.90;99.90
52565;DHT22;38460;53.106;7.004;2023-12-22T12:28:04;6.90;99.90
52565;DHT22;38460;53.106;7.004;2023-12-22T12:30:31;6.90;99.90
52565;DHT22;38460;53.106;7.004;2023-12-22T12:32:59;6.90;99.90
52565;DHT22;38460;53.106;7.004;2023-12-22T12:35:32;6.90;99.90
52565;DHT22;38460;53.106;7.004;2023-12-22T12:37:59;6.90;99.90
52565;DHT22;38460;53.106;7.004;2023-12-22T12:40:27;7.00;99.90
52565;DHT22;38460;53.106;7.004;2023-12-22T12:42:56;7.00;99.90
52565;DHT22;38460;53.106;7.004;2023-12-22T12:45:22;7.00;99.90
52565;DHT22;38460;53.106;7.004;2023-12-22T12:48:00;7.00;99.90
52565;DHT22;38460;53.106;7.004;2023-12-22T12:50:27;7.00;99.90
52565;DHT22;38460;53.106;7.004;2023-12-22T12:52:54;7.00;99.90
52565;DHT22;38460;53.106;7.004;2023-12-22T12:55:22;7.00;99.90
52565;DHT22;38460;53.106;7.004;2023-12-22T12:57:51;7.00;99.90
52565;DHT22;38460;53.106;7.004;2023-12-22T13:00:37;7.90;99.90
52565;DHT22;38460;53.106;7.004;2023-12-22T13:03:07;7.00;99.90
52565;DHT22;38460;53.106;7.004;2023-12-22T13:05:32;7.00;99.90
52565;DHT22;38460;53.106;7.004;2023-12-22T13:08:11;7.00;99.90
52565;DHT22;38460;53.106;7.004;2023-12-22T13:10:38;7.00;99.90
52565;DHT22;38460;53.106;7.004;2023-12-22T13:13:05;7.00;99.90
52565;DHT22;38460;53.106;7.004;2023-12-22T13:15:31;7.20;99.90
52565;DHT22;38460;53.106;7.004;2023-12-22T13:17:57;7.00;99.90
52565;DHT22;38460;53.106;7.004;2023-12-22T13:20:23;7.00;99.90
52565;DHT22;38460;53.106;7.004;2023-12-22T13:22:49;7.00;99.90
52565;DHT22;38460;53.106;7.004;2023-12-22T13:25:15;7.00;99.90
52565;DHT22;38460;53.106;7.004;2023-12-22T13:27:48;7.00;99.90
52565;DHT22;38460;53.106;7.004;2023-12-22T13:32:59;6.90;99.90
52565;DHT22;38460;53.106;7.004;2023-12-22T13:35:25;6.90;99.90
52565;DHT22;38460;53.106;7.004;2023-12-22T13:37:52;6.80;99.90
52565;DHT22;38460;53.106;7.004;2023-12-22T13:40:18;6.80;99.90
52565;DHT22;38460;53.106;7.004;2023-12-22T13:42:44;6.80;99.90
52565;DHT22;38460;53.106;7.004;2023-12-22T13:45:10;6.80;99.90
52565;DHT22;38460;53.106;7.004;2023-12-22T13:47:41;6.80;99.90
52565;DHT22;38460;53.106;7.004;2023-12-22T13:50:17;6.70;99.90
52565;DHT22;38460;53.106;7.004;2023-12-22T13:52:44;6.70;99.90
52565;DHT22;38460;53.106;7.004;2023-12-22T13:55:14;6.70;99.90
52565;DHT22;38460;53.106;7.004;2023-12-22T13:57:41;6.70;99.90
52565;DHT22;38460;53.106;7.004;2023-12-22T14:02:48;6.70;99.90
52565;DHT22;38460;53.106;7.004;2023-12-22T14:05:20;6.60;99.90
52565;DHT22;38460;53.106;7.004;2023-12-22T14:07:46;6.60;99.90
52565;DHT22;38460;53.106;7.004;2023-12-22T14:10:12;6.60;99.90
52565;DHT22;38460;53.106;7.004;2023-12-22T14:12:38;6.50;99.90
52565;DHT22;38460;53.106;7.004;2023-12-22T14:15:11;6.50;99.90
52565;DHT22;38460;53.106;7.004;2023-12-22T14:17:37;6.50;99.90
52565;DHT22;38460;53.106;7.004;2023-12-22T14:20:04;6.50;99.90
52565;DHT22;38460;53.106;7.004;2023-12-22T14:22:35;6.50;99.90
52565;DHT22;38460;53.106;7.004;2023-12-22T14:25:01;6.50;99.90
52565;DHT22;38460;53.106;7.004;2023-12-22T14:27:27;6.50;99.90
52565;DHT22;38460;53.106;7.004;2023-12-22T14:29:53;6.50;99.90
52565;DHT22;38460;53.106;7.004;2023-12-22T14:32:19;6.50;99.90
52565;DHT22;38460;53.106;7.004;2023-12-22T14:34:45;6.50;99.90
52565;DHT22;38460;53.106;7.004;2023-12-22T14:37:11;6.50;99.90
52565;DHT22;38460;53.106;7.004;2023-12-22T14:39:37;6.50;99.90
52565;DHT22;38460;53.106;7.004;2023-12-22T14:42:03;6.50;99.90
52565;DHT22;38460;53.106;7.004;2023-12-22T14:44:29;6.50;99.90
52565;DHT22;38460;53.106;7.004;2023-12-22T14:46:55;6.40;99.90
52565;DHT22;38460;53.106;7.004;2023-12-22T14:49:21;6.40;99.90
52565;DHT22;38460;53.106;7.004;2023-12-22T14:51:47;6.40;99.90
52565;DHT22;38460;53.106;7.004;2023-12-22T14:54:17;6.40;99.90
52565;DHT22;38460;53.106;7.004;2023-12-22T14:56:43;6.40;99.90
52565;DHT22;38460;53.106;7.004;2023-12-22T14:59:09;6.40;99.90
52565;DHT22;38460;53.106;7.004;2023-12-22T15:01:36;6.40;99.90
52565;DHT22;38460;53.106;7.004;2023-12-22T15:04:02;6.40;99.90
52565;DHT22;38460;53.106;7.004;2023-12-22T15:06:29;6.40;99.90
52565;DHT22;38460;53.106;7.004;2023-12-22T15:08:55;6.40;99.90
52565;DHT22;38460;53.106;7.004;2023-12-22T15:11:21;6.40;99.90
52565;DHT22;38460;53.106;7.004;2023-12-22T15:13:46;6.40;99.90
52565;DHT22;38460;53.106;7.004;2023-12-22T15:16:12;6.30;99.90
52565;DHT22;38460;53.106;7.004;2023-12-22T15:18:38;6.30;99.90
52565;DHT22;38460;53.106;7.004;2023-12-22T15:21:04;6.40;99.90
52565;DHT22;38460;53.106;7.004;2023-12-22T15:23:29;6.30;99.90
52565;DHT22;38460;53.106;7.004;2023-12-22T15:25:58;6.30;99.90
52565;DHT22;38460;53.106;7.004;2023-12-22T15:28:24;6.30;99.90
52565;DHT22;38460;53.106;7.004;2023-12-22T15:30:49;6.30;99.90
52565;DHT22;38460;53.106;7.004;2023-12-22T15:33:15;6.40;99.90
52565;DHT22;38460;53.106;7.004;2023-12-22T15:35:41;6.40;99.90
52565;DHT22;38460;53.106;7.004;2023-12-22T15:38:06;6.40;99.90
52565;DHT22;38460;53.106;7.004;2023-12-22T15:40:32;6.30;99.90
52565;DHT22;38460;53.106;7.004;2023-12-22T15:42:58;6.40;99.90
52565;DHT22;38460;53.106;7.004;2023-12-22T15:45:24;6.40;99.90
52565;DHT22;38460;53.106;7.004;2023-12-22T15:47:49;6.40;99.90
52565;DHT22;38460;53.106;7.004;2023-12-22T15:50:15;6.40;99.90
52565;DHT22;38460;53.106;7.004;2023-12-22T15:52:42;6.40;99.90
52565;DHT22;38460;53.106;7.004;2023-12-22T15:55:08;6.40;99.90
52565;DHT22;38460;53.106;7.004;2023-12-22T15:57:34;6.40;99.90